Tiempo atmosférico en la estación meteorológica de Mogán, Puerto, Las Palmas (10 m.)



Fecha
DESCASC
Temp. máxima en grados centígrados (hora)
DESCASC
Temp. mínima en grados centígrados (hora)
DESCASC
Temp. media en grados centígrados
DESCASC
Racha de viento máxima en m/sg (hora)
DESCASC
Velocidad máxima media en intervalos de 10 minutos(hora)
DESCASC
Precipitaciones diarias en mm
DESCASC
Precipitaciones de 00:00 a 06:00 en mm
DESCASC
Precipitaciones de 06:00 a 12:00 en mm
DESCASC
Precipitaciones de 12:00 a 18:00 en mm
DESCASC
Precipitaciones de 18:00 a 24:00 en mm
DESCASC
29-03-2020 21.9 (13:10) 15 (07:50) 18.4 7.5 (19:50) 5.28 (19:10) 0 0 0 0 0
28-03-2020 22.7 (13:10) 14.7 (06:40) 18.7 5.28 (14:50) 3.89 (15:50) -- -- -- -- --
27-03-2020 20.5 (16:50) 14.3 (02:10) 17.4 7.22 (10:00) 5.28 (10:40) -- -- -- -- --
26-03-2020 21.4 (11:50) 15 (00:00) 18.2 6.67 (18:20) 3.89 (18:30) -- -- -- -- --
25-03-2020 22.5 (14:50) 17.4 (00:00) 19.9 6.94 (13:40) 4.17 (10:30) -- -- -- -- --
24-03-2020 25.5 (14:10) 16.8 (00:00) 21.1 15 (00:30) 6.67 (16:00) -- -- -- -- --
23-03-2020 21.6 (17:20) 14.6 (00:00) 18.1 16.11 (05:10) 6.11 (13:20) -- -- -- -- --
22-03-2020 21.8 (11:20) 16.4 (07:00) 19.1 10.83 (21:40) 5.28 (12:20) -- -- -- -- --
21-03-2020 21.3 (17:50) 16.2 (00:00) 18.8 8.89 (11:30) 6.39 (11:40) -- -- -- -- --
20-03-2020 23.8 (11:50) 18 (00:00) 20.9 8.33 (07:20) 6.11 (14:20) -- -- -- -- --
19-03-2020 24.3 (16:50) 18.5 (00:00) 21.4 13.89 (13:10) 6.11 (15:30) -- -- -- -- --
18-03-2020 22.5 (15:30) 16.6 (00:00) 19.6 15.28 (17:10) 5.83 (17:00) -- -- -- -- --
17-03-2020 21.2 (10:30) 15.2 (00:00) 18.2 8.06 (18:10) 6.11 (18:00) -- -- -- -- --
16-03-2020 22.8 (12:40) 16.5 (00:00) 19.6 8.61 (18:20) 5.28 (14:10) -- -- -- -- --
15-03-2020 22.7 (16:20) 14.8 (00:00) 18.8 7.22 (19:10) 5.83 (14:30) -- -- -- -- --
14-03-2020 22.6 (14:00) 16.5 (00:00) 19.6 6.67 (16:00) 4.72 (15:50) -- -- -- -- --
13-03-2020 22.8 (14:10) 16.7 (07:30) 19.8 6.67 (18:30) 3.89 (14:30) -- -- -- -- --
12-03-2020 25.8 (17:10) 16.6 (00:00) 21.2 8.89 (00:20) 6.11 (00:20) -- -- -- -- --
11-03-2020 23.9 (15:20) 15.6 (00:00) 19.8 8.06 (23:50) 6.11 (23:40) -- -- -- -- --
10-03-2020 24.5 (16:00) 17.6 (00:00) 21.1 8.06 (13:50) 6.11 (13:40) -- -- -- -- --
09-03-2020 29.1 (12:00) 18 (00:00) 23.6 11.67 (11:50) 8.89 (13:30) -- -- -- -- --
08-03-2020 27.8 (14:20) 15.6 (00:00) 21.7 11.67 (01:00) 8.06 (01:00) -- -- -- -- --
07-03-2020 23.6 (15:00) 14.7 (00:00) 19.2 5.83 (08:20) 4.72 (15:50) -- -- -- -- --
06-03-2020 22.6 (11:40) 16.1 (00:00) 19.4 7.22 (22:30) 5 (13:40) -- -- -- -- --
05-03-2020 23 (18:10) 17.7 (00:00) 20.4 6.94 (04:30) 5.56 (04:30) -- -- -- -- --
04-03-2020 25.4 (12:50) 15.7 (00:00) 20.5 5 (05:30) 4.44 (15:00) -- -- -- -- --
03-03-2020 23.4 (15:10) 15.5 (00:00) 19.4 5.83 (23:40) 3.89 (05:10) -- -- -- -- --
02-03-2020 22.8 (12:20) 16.2 (00:00) 19.5 8.89 (05:00) 5 (11:10) -- -- -- -- --
01-03-2020 22.2 (16:30) 15.2 (00:00) 18.7 11.11 (17:30) 9.17 (17:20) -- -- -- -- --
29-02-2020 21.5 (14:20) 15.2 (00:00) 18.3 6.39 (15:40) 5.28 (15:20) -- -- -- -- --

Gráficas

Temp. máximas Temp. mínimas Temp. medias Precipitaciones Rachas de viento máximas Velocidades máximas media en intervalos de 10 minutos

Datos horarios

Fecha y hora oficial Temperatura (ºC) Velocidad del viento (km/h) Dirección del viento Racha (km/h) Dirección de racha Precipitación (mm) Presión (hPa) Tendencia (hPa) Humedad (%)
2020-03-29 23:00:00 18 6 Oeste 20 Oeste 0 -- -- 70
2020-03-29 22:00:00 18.3 15 Oeste 20 Oeste 0 -- -- 69
2020-03-29 21:00:00 18.4 14 Oeste 23 Oeste 0 -- -- 68
2020-03-29 20:00:00 18.7 17 Oeste 27 Oeste 0 -- -- 66
2020-03-29 19:00:00 19.1 18 Oeste 25 Oeste 0 -- -- 65
2020-03-29 18:00:00 19.5 17 Oeste 23 Oeste 0 -- -- 61
2020-03-29 17:00:00 20.1 13 Oeste 21 Oeste 0 -- -- 56
2020-03-29 16:00:00 21.2 12 Oeste 18 Oeste 0 -- -- 56
2020-03-29 15:00:00 20.8 8 Sudoeste 14 Sur 0 -- -- 59
2020-03-29 14:00:00 20 11 Sur 14 Sur 0 -- -- 61
2020-03-29 13:00:00 21.3 9 Sur 14 Sur 0 -- -- 59
2020-03-29 12:00:00 21.1 9 Sur 13 Sur 0 -- -- 61
2020-03-29 11:00:00 20.1 6 Sur 10 Sur 0 -- -- 64
2020-03-29 10:00:00 16.6 5 Norte 17 Nordeste 0 -- -- 66
2020-03-29 09:00:00 15.6 8 Norte 17 Norte 0 -- -- 67
2020-03-29 08:00:00 15.1 9 Norte 17 Sur 0 -- -- 69
2020-03-29 07:00:00 15.6 9 Norte 17 Sur 0 -- -- 69
2020-03-29 06:00:00 15.1 8 Norte 17 Sur 0 -- -- 70
2020-03-29 05:00:00 15.3 10 Norte 16 Norte 0 -- -- 69
2020-03-29 04:00:00 15.8 8 Norte 17 Norte 0 -- -- 66
2020-03-29 00:00:00 16.7 8 Nordeste 17 Este 0 -- -- 66
2020-03-28 23:00:00 17.5 8 Nordeste 17 Nordeste 0 -- -- 65
2020-03-28 22:00:00 18.3 6 Nordeste 13 Este 0 -- -- 64
2020-03-28 21:00:00 18.6 6 Nordeste 11 Nordeste 0 -- -- 62
2020-03-28 20:00:00 18.4 2 Sudeste 6 Oeste 0 -- -- 64
2020-03-28 19:00:00 19.4 6 Sudoeste 14 Sudoeste 0 -- -- 61
2020-03-28 18:00:00 20.2 9 Sudoeste 18 Oeste 0 -- -- 60
2020-03-28 17:00:00 21 11 Oeste 18 Sudoeste 0 -- -- 59
2020-03-28 16:00:00 20.8 13 Sudoeste 19 Sudoeste 0 -- -- 59
2020-03-28 15:00:00 21.3 11 Sudoeste 19 Sudoeste 0 -- -- 60
2020-03-28 14:00:00 21.6 10 Sur 16 Sudoeste 0 -- -- 59
2020-03-28 13:00:00 22.3 8 Sur 14 Sur 0 -- -- 60
2020-03-28 12:00:00 21.8 9 Sur 17 Sur 0 -- -- 64
2020-03-28 11:00:00 19.6 10 Sudeste 15 Sudeste 0 -- -- 67
2020-03-28 10:00:00 20.4 8 Sudeste 14 Sudeste 0 -- -- 66
2020-03-28 09:00:00 17.4 5 Nordeste 15 Sur 0 -- -- 70
2020-03-28 08:00:00 15.5 8 Nordeste 15 Norte 0 -- -- 72
2020-03-28 07:00:00 14.9 10 Norte 17 Norte 0 -- -- 75
2020-03-28 06:00:00 15.1 10 Norte 15 Norte 0 -- -- 76
2020-03-28 05:00:00 15.4 10 Nordeste 15 Norte 0 -- -- 76
2020-03-28 04:00:00 15.9 7 Norte 13 Norte 0 -- -- 75
2020-03-28 03:00:00 16.9 0 Calma 6 Norte 0 -- -- 71
2020-03-28 02:00:00 17.3 5 Este 9 Este 0 -- -- 70
2020-03-28 01:00:00 17.5 0 Calma 13 Sur 0 -- -- 70
2020-03-28 00:00:00 17.8 2 Norte 11 Norte 0 -- -- 68
2020-03-27 23:00:00 17.9 9 Nordeste 14 Nordeste 0 -- -- 70
2020-03-27 22:00:00 18.4 6 Oeste 15 Sudoeste 0 -- -- 70
2020-03-27 21:00:00 18.6 10 Oeste 15 Sudoeste 0 -- -- 68
2020-03-27 20:00:00 18.5 3 Oeste 13 Oeste 0 -- -- 67
2020-03-27 19:00:00 19.1 10 Oeste 20 Oeste 0 -- -- 65
2020-03-27 18:00:00 20.1 16 Oeste 23 Oeste 0 -- -- 64
2020-03-27 17:00:00 20.4 16 Oeste 23 Oeste 0 -- -- 63
2020-03-27 16:00:00 20 10 Oeste 20 Noroeste 0 -- -- 62
2020-03-27 15:00:00 20 14 Oeste 24 Oeste 0 -- -- 61
2020-03-27 14:00:00 19.9 18 Oeste 25 Oeste 0 -- -- 60
2020-03-27 13:00:00 19.4 15 Oeste 25 Oeste 0 -- -- 59
2020-03-27 12:00:00 19.6 16 Oeste 26 Oeste 0 -- -- 60
2020-03-27 11:00:00 19 18 Oeste 26 Oeste 0 -- -- 62
2020-03-27 10:00:00 18.7 17 Oeste 26 Oeste 0 -- -- 62
2020-03-27 09:00:00 16.8 5 Nordeste 15 Sur 0 -- -- 66
2020-03-27 08:00:00 15.7 6 Nordeste 16 Norte 0 -- -- 70
2020-03-27 07:00:00 15.2 7 Nordeste 12 Norte 0 -- -- 72
2020-03-27 06:00:00 15.4 2 Noroeste 12 Noroeste 0 -- -- 72
2020-03-27 05:00:00 15.8 4 Oeste 12 Norte 0 -- -- 74
2020-03-27 04:00:00 15.4 3 Nordeste 14 Sur 0 -- -- 77
2020-03-27 03:00:00 15 4 Nordeste 16 Sur 0 -- -- 77
2020-03-27 02:00:00 14.4 5 Nordeste 16 Sur 0 -- -- 80
2020-03-27 01:00:00 14.6 4 Nordeste 13 Sur 0 -- -- 81
2020-03-27 00:00:00 15.1 5 Nordeste 12 Norte 0 -- -- 80
2020-03-26 23:00:00 16 2 Nordeste 12 Sudeste 0 -- -- 76
2020-03-26 22:00:00 16.7 2 Sudeste 9 Este 0 -- -- 73
2020-03-26 21:00:00 16.7 0 Calma 12 Sudeste 0 -- -- 74
2020-03-26 20:00:00 16.5 8 Sudeste 17 Este 0 -- -- 73
2020-03-26 19:00:00 17 11 Sudeste 24 Sudeste 0 -- -- 75
2020-03-26 18:00:00 17.1 10 Sudeste 22 Sudeste 0.1 -- -- 78
2020-03-26 17:00:00 15.6 0 Calma 17 Nordeste 2 -- -- 82
2020-03-26 16:00:00 15.5 6 Nordeste 18 Nordeste 5.3 -- -- 83
2020-03-26 15:00:00 17.3 6 Este 18 Nordeste 0 -- -- 66
2020-03-26 14:00:00 18.6 7 Sudeste 17 Sudeste 0 -- -- 64
2020-03-26 13:00:00 18.7 9 Sur 14 Sudoeste 0 -- -- 62
2020-03-26 12:00:00 19.5 10 Sudoeste 15 Oeste 0 -- -- 59
2020-03-26 11:00:00 19.5 8 Oeste 14 Oeste 0 -- -- 60
2020-03-26 10:00:00 20.2 8 Oeste 12 Oeste 0 -- -- 58
2020-03-26 09:00:00 19.5 2 Oeste 12 Sur 0 -- -- 61
2020-03-26 08:00:00 16.7 2 Norte 14 Norte 0 -- -- 65
2020-03-26 07:00:00 16.2 4 Norte 14 Norte 0 -- -- 65
2020-03-26 06:00:00 16.5 4 Nordeste 13 Sur 0 -- -- 64
2020-03-26 05:00:00 16.6 4 Nordeste 11 Nordeste 0 -- -- 62
2020-03-26 04:00:00 16.9 3 Nordeste 9 Sur 0 -- -- 62
2020-03-26 03:00:00 17 3 Norte 11 Sur 0 -- -- 62
2020-03-26 02:00:00 17.3 3 Norte 9 Sur 0 -- -- 61
2020-03-26 01:00:00 17.7 3 Nordeste 8 Sudeste 0 -- -- 62
2020-03-26 00:00:00 17.6 3 Nordeste 8 Sudeste 0 -- -- 64
2020-03-25 23:00:00 17.7 2 Sur 10 Sur 0 -- -- 64
2020-03-25 22:00:00 18 6 Sur 17 Sudeste 0 -- -- 64
2020-03-25 21:00:00 18 7 Sur 16 Sudeste 0 -- -- 63
2020-03-25 20:00:00 18.2 6 Sudoeste 10 Sudoeste 0 -- -- 62
2020-03-25 19:00:00 19.7 0 Calma 8 Sur 0 -- -- 57
2020-03-25 18:00:00 19.8 4 Sur 14 Sudeste 0 -- -- 57
2020-03-25 17:00:00 20.4 8 Sur 16 Sur 0 -- -- 56
2020-03-25 16:00:00 19.9 11 Sur 21 Sudeste 0 -- -- 57
2020-03-25 15:00:00 21.2 10 Sur 21 Este 0 -- -- 56
2020-03-25 14:00:00 20.3 11 Sudeste 25 Sudoeste 0 -- -- 59
2020-03-25 13:00:00 20.8 6 Sur 13 Oeste 0 -- -- 55
2020-03-25 12:00:00 20.8 10 Sudoeste 16 Sudoeste 0 -- -- 56
2020-03-25 11:00:00 19.5 12 Sur 21 Sudeste 0 -- -- 64
2020-03-25 10:00:00 21.2 6 Sur 25 Sudeste 0 -- -- 56
2020-03-25 09:00:00 20.9 5 Sur 17 Este 0 -- -- 56
2020-03-25 08:00:00 18.6 2 Este 15 Oeste 0 -- -- 59
2020-03-25 07:00:00 17.7 2 Nordeste 13 Sudoeste 0 -- -- 54
2020-03-25 06:00:00 18.2 3 Este 17 Este 0 -- -- 54
2020-03-25 05:00:00 18.3 0 Calma 11 Sudoeste 0 -- -- 54
2020-03-25 04:00:00 18.4 0 Calma 10 Oeste 0 -- -- 56
2020-03-25 03:00:00 18.4 0 Calma 14 Sudoeste 0 -- -- 54
2020-03-25 02:00:00 17.7 0 Calma 8 Norte 0 -- -- 53
2020-03-25 01:00:00 18.1 0 Calma 4 Norte 0 -- -- 53
2020-03-25 00:00:00 18.7 3 Oeste 10 Nordeste 0 -- -- 50
2020-03-24 23:00:00 19 3 Este 16 Este 0 -- -- 50
2020-03-24 22:00:00 19 2 Este 22 Sur 0 -- -- 58
2020-03-24 21:00:00 18.8 2 Sudeste 14 Este 0 -- -- 66
2020-03-24 20:00:00 19 9 Sur 22 Sur 0 -- -- 65
2020-03-24 19:00:00 20.8 3 Noroeste 32 Nordeste 0 -- -- 45
2020-03-24 18:00:00 21.3 4 Noroeste 35 Noroeste 0 -- -- 44
2020-03-24 17:00:00 22.6 6 Oeste 35 Norte 0 -- -- 44
2020-03-24 16:00:00 22.3 24 Oeste 44 Oeste 0 -- -- 46
2020-03-24 15:00:00 22.7 5 Norte 35 Norte 0 -- -- 40
2020-03-24 14:00:00 25.3 3 Nordeste 24 Nordeste 0 -- -- 37
2020-03-24 13:00:00 22.6 0 Calma 36 Sur 0 -- -- 40
2020-03-24 12:00:00 21.9 0 Calma 40 Oeste 0 -- -- 44
2020-03-24 11:00:00 21.2 0 Calma 39 Norte 0 -- -- 48
2020-03-24 10:00:00 20.1 0 Calma 33 Norte 0 -- -- 50
2020-03-24 09:00:00 19.1 3 Nordeste 26 Sudeste 0 -- -- 55
2020-03-24 08:00:00 18.2 2 Nordeste 31 Sudeste 0 -- -- 55
2020-03-24 07:00:00 18.1 2 Nordeste 40 Noroeste 0 -- -- 56
2020-03-24 06:00:00 18 5 Oeste 28 Noroeste 0 -- -- 58
2020-03-24 05:00:00 17.9 8 Oeste 31 Sudoeste 0.1 -- -- 59
2020-03-24 04:00:00 17.7 5 Oeste 24 Oeste 0.1 -- -- 63
2020-03-24 03:00:00 18.3 5 Oeste 29 Norte 0 -- -- 56
2020-03-24 02:00:00 18.4 4 Oeste 33 Noroeste 0 -- -- 54
2020-03-24 01:00:00 18.6 5 Noroeste 54 Sur 0 -- -- 53
2020-03-24 00:00:00 18.4 5 Oeste 31 Norte 0 -- -- 55
2020-03-23 23:00:00 18.4 6 Oeste 36 Sudoeste 0 -- -- 53
2020-03-23 22:00:00 18.7 3 Noroeste 37 Sur 0 -- -- 53
2020-03-23 21:00:00 18.6 4 Oeste 28 Norte 0 -- -- 53
2020-03-23 20:00:00 18.6 6 Oeste 30 Norte 0 -- -- 51
2020-03-23 19:00:00 19 5 Noroeste 31 Norte 0 -- -- 49
2020-03-23 18:00:00 21.1 4 Noroeste 20 Noroeste 0 -- -- 45
2020-03-23 17:00:00 20 4 Este 27 Sur 0 -- -- 46
2020-03-23 16:00:00 19.1 3 Nordeste 33 Oeste 0 -- -- 55
2020-03-23 15:00:00 20.8 3 Noroeste 42 Norte 0 -- -- 50
2020-03-23 14:00:00 20.6 4 Oeste 48 Sudoeste 0.1 -- -- 48
2020-03-23 13:00:00 18.6 9 Oeste 36 Noroeste 0 -- -- 54
2020-03-23 12:00:00 19.7 5 Oeste 47 Nordeste 0 -- -- 50
2020-03-23 11:00:00 16.6 3 Sudoeste 41 Norte 0.6 -- -- 58
2020-03-23 10:00:00 15 4 Oeste 37 Norte 1 -- -- 65
2020-03-23 09:00:00 17.1 4 Oeste 48 Sudoeste 0.1 -- -- 54
2020-03-23 08:00:00 16.6 0 Calma 42 Sur 0.1 -- -- 54
2020-03-23 07:00:00 15.6 3 Noroeste 46 Sudoeste 0.3 -- -- 60
2020-03-23 06:00:00 16.3 5 Oeste 58 Noroeste 0 -- -- 58
2020-03-23 05:00:00 17.3 6 Oeste 48 Norte 0 -- -- 49
2020-03-23 04:00:00 17.5 6 Oeste 47 Sudoeste 0 -- -- 50
2020-03-23 03:00:00 17.6 3 Sudoeste 28 Noroeste 0 -- -- 51
2020-03-23 02:00:00 17.7 2 Sudoeste 28 Sur 0 -- -- 53
2020-03-23 01:00:00 18 2 Sudoeste 32 Nordeste 0 -- -- 51
2020-03-23 00:00:00 18.3 0 Calma 21 Sur 0 -- -- 50
2020-03-22 23:00:00 18.5 3 Sudoeste 35 Sur 0 -- -- 50
2020-03-22 22:00:00 18.8 6 Sur 39 Sur 0 -- -- 49
2020-03-22 21:00:00 19.1 2 Sur 32 Sudoeste 0 -- -- 47
2020-03-22 20:00:00 18.8 5 Sur 33 Sur 0 -- -- 55
2020-03-22 19:00:00 18.9 5 Oeste 24 Oeste 0 -- -- 62
2020-03-22 18:00:00 18.6 14 Oeste 30 Sudoeste 0 -- -- 62
2020-03-22 17:00:00 18.4 16 Oeste 25 Oeste 0 -- -- 62
2020-03-22 16:00:00 20.1 7 Oeste 13 Oeste 0 -- -- 56
2020-03-22 15:00:00 19.7 11 Sudoeste 24 Oeste 0 -- -- 56
2020-03-22 14:00:00 20.1 18 Oeste 26 Oeste 0 -- -- 54
2020-03-22 13:00:00 19.5 16 Oeste 27 Oeste 0 -- -- 51
2020-03-22 12:00:00 19 17 Oeste 30 Oeste 0 -- -- 53
2020-03-22 11:00:00 20.1 6 Sur 26 Sur 0 -- -- 48
2020-03-22 10:00:00 19.6 8 Sudoeste 31 Noroeste 0 -- -- 51
2020-03-22 09:00:00 18 13 Oeste 24 Oeste 0 -- -- 51
2020-03-22 08:00:00 18 4 Sudoeste 13 Oeste 0 -- -- 50
2020-03-22 07:00:00 16.6 0 Calma 15 Norte 0 -- -- 54
2020-03-22 06:00:00 17.1 3 Sudoeste 19 Nordeste 0 -- -- 54
2020-03-22 05:00:00 17.5 6 Sudoeste 23 Noroeste 0 -- -- 53
2020-03-22 04:00:00 17.5 4 Sudoeste 24 Noroeste 0 -- -- 53
2020-03-22 03:00:00 17.6 10 Sudoeste 31 Sur 0 -- -- 53
2020-03-22 02:00:00 17.6 5 Sur 22 Sur 0 -- -- 49
2020-03-22 01:00:00 17.6 6 Sudoeste 23 Sudoeste 0 -- -- 50
2020-03-22 00:00:00 17.8 6 Sudoeste 16 Noroeste 0 -- -- 53
2020-03-21 23:00:00 18 5 Sudoeste 21 Noroeste 0 -- -- 54
2020-03-21 22:00:00 18.1 3 Sudoeste 15 Sudoeste 0 -- -- 50
2020-03-21 21:00:00 18.3 0 Calma 21 Sudoeste 0 -- -- 50
2020-03-21 20:00:00 18.7 2 Sudeste 24 Sudeste 0 -- -- 48
2020-03-21 19:00:00 19.7 4 Sur 12 Sudeste 0 -- -- 51
2020-03-21 18:00:00 20.2 7 Sur 27 Sur 0 -- -- 51
2020-03-21 17:00:00 18.9 20 Sur 28 Sur 0 -- -- 56
2020-03-21 16:00:00 19.4 10 Sur 25 Sur 0 -- -- 51
2020-03-21 15:00:00 19.9 21 Sur 27 Sur 0 -- -- 51
2020-03-21 14:00:00 20.1 18 Sur 22 Sudoeste 0 -- -- 51
2020-03-21 13:00:00 20.2 12 Sur 28 Oeste 0 -- -- 49
2020-03-21 12:00:00 19.9 20 Oeste 32 Oeste 0 -- -- 54
2020-03-21 11:00:00 20.1 13 Sudoeste 22 Sudoeste 0 -- -- 48
2020-03-21 10:00:00 18.6 3 Sur 21 Sudoeste 0 -- -- 48
2020-03-21 09:00:00 17.8 3 Este 23 Nordeste 0 -- -- 50
2020-03-21 08:00:00 17.5 3 Sudeste 25 Sudoeste 0 -- -- 49
2020-03-21 07:00:00 17.4 3 Sur 25 Sudoeste 0 -- -- 51
2020-03-21 06:00:00 16.7 2 Sudeste 15 Sur 0 -- -- 53
2020-03-21 05:00:00 16.5 2 Sudeste 15 Sudeste 0 -- -- 54
2020-03-21 04:00:00 17 3 Este 12 Nordeste 0 -- -- 64
2020-03-21 03:00:00 17.5 0 Calma 10 Oeste 0 -- -- 69
2020-03-21 02:00:00 18 0 Calma 13 Sudoeste 0 -- -- 69
2020-03-21 01:00:00 17.8 2 Sudeste 13 Oeste 0 -- -- 70
2020-03-21 00:00:00 18.1 3 Este 13 Oeste 0 -- -- 70
2020-03-20 23:00:00 18.5 2 Este 12 Oeste 0 -- -- 70
2020-03-20 22:00:00 18.4 6 Sudoeste 13 Sudoeste 0 -- -- 69
2020-03-20 21:00:00 18.7 8 Sudeste 14 Oeste 0 -- -- 67
2020-03-20 20:00:00 18.6 6 Sur 13 Este 0 -- -- 66
2020-03-20 19:00:00 19.2 7 Sudeste 15 Sur 0 -- -- 62
2020-03-20 18:00:00 20.4 11 Sur 19 Sur 0 -- -- 60
2020-03-20 17:00:00 21.1 13 Sur 22 Sur 0 -- -- 57
2020-03-20 16:00:00 20.2 14 Sur 27 Sudeste 0 -- -- 59
2020-03-20 15:00:00 20.9 18 Sudeste 30 Sudeste 0 -- -- 57
2020-03-20 14:00:00 22.4 12 Sur 23 Sudeste 0 -- -- 55
2020-03-20 13:00:00 22.6 13 Sur 22 Sudeste 0 -- -- 51
2020-03-20 12:00:00 23.5 6 Sur 28 Nordeste 0 -- -- 49
2020-03-20 11:00:00 22.1 4 Sur 20 Este 0 -- -- 55
2020-03-20 10:00:00 20.6 9 Sur 28 Sudeste 0 -- -- 61
2020-03-20 09:00:00 21.3 3 Sur 25 Oeste 0 -- -- 58
2020-03-20 08:00:00 19.3 4 Oeste 30 Sur 0 -- -- 53
2020-03-20 07:00:00 19 2 Oeste 22 Norte 0 -- -- 55
2020-03-20 06:00:00 18.3 3 Sudoeste 16 Este 0 -- -- 61
2020-03-20 05:00:00 19.2 0 Calma 24 Nordeste 0 -- -- 55
2020-03-20 04:00:00 19.8 0 Calma 21 Sudeste 0 -- -- 51
2020-03-20 03:00:00 19.5 2 Norte 18 Nordeste 0 -- -- 53
2020-03-20 02:00:00 19.6 5 Oeste 19 Norte 0 -- -- 53
2020-03-20 01:00:00 19.5 5 Oeste 28 Sur 0 -- -- 53
2020-03-20 00:00:00 19.8 0 Calma 34 Norte 0 -- -- 54
2020-03-19 23:00:00 20 2 Sudoeste 29 Sudoeste 0 -- -- 53
2020-03-19 22:00:00 20.4 6 Oeste 27 Oeste 0 -- -- 50
2020-03-19 21:00:00 20 16 Oeste 30 Oeste 0 -- -- 53
2020-03-19 20:00:00 20.9 2 Norte 23 Nordeste 0 -- -- 47
2020-03-19 19:00:00 21.5 8 Nordeste 45 Nordeste 0 -- -- 45
2020-03-19 18:00:00 22.3 9 Norte 39 Nordeste 0 -- -- 45
2020-03-19 17:00:00 22.2 18 Nordeste 37 Nordeste 0 -- -- 45
2020-03-19 16:00:00 21.8 12 Sudeste 32 Sur 0 -- -- 60
2020-03-19 15:00:00 21.2 19 Sudeste 32 Sudeste 0 -- -- 59
2020-03-19 14:00:00 22.3 7 Sudeste 50 Sudoeste 0 -- -- 48
2020-03-19 13:00:00 22.3 13 Nordeste 38 Nordeste 0 -- -- 38
2020-03-19 12:00:00 21.7 11 Este 35 Sudeste 0 -- -- 46
2020-03-19 11:00:00 21.3 0 Calma 47 Norte 0 -- -- 53
2020-03-19 10:00:00 20.4 0 Calma 35 Noroeste 0 -- -- 53
2020-03-19 09:00:00 20.2 0 Calma 22 Sur 0 -- -- 54
2020-03-19 08:00:00 19.5 0 Calma 37 Oeste 0 -- -- 55
2020-03-19 07:00:00 19 4 Oeste 48 Norte 0 -- -- 55
2020-03-19 06:00:00 18.9 10 Oeste 44 Sur 0 -- -- 56
2020-03-19 05:00:00 19 8 Oeste 29 Sur 0 -- -- 53
2020-03-19 04:00:00 18.9 7 Oeste 32 Norte 0 -- -- 51
2020-03-19 03:00:00 19.2 10 Oeste 38 Oeste 0 -- -- 53
2020-03-19 02:00:00 19 11 Oeste 38 Sur 0 -- -- 54
2020-03-19 01:00:00 18.8 9 Oeste 47 Noroeste 0 -- -- 53
2020-03-19 00:00:00 18.5 3 Oeste 51 Oeste 0 -- -- 51
2020-03-18 23:00:00 18.5 3 Oeste 42 Sur 0 -- -- 48
2020-03-18 22:00:00 18.6 4 Oeste 50 Nordeste 0 -- -- 47
2020-03-18 21:00:00 18.8 11 Oeste 41 Sur 0 -- -- 54
2020-03-18 20:00:00 18.8 12 Oeste 34 Noroeste 0 -- -- 52
2020-03-18 19:00:00 19.1 15 Oeste 41 Oeste 0 -- -- 49
2020-03-18 18:00:00 19.9 5 Oeste 55 Oeste 0 -- -- 45
2020-03-18 17:00:00 19.7 21 Oeste 50 Sudoeste 0 -- -- 46
2020-03-18 16:00:00 21.3 8 Oeste 37 Noroeste 0 -- -- 40
2020-03-18 15:00:00 22.1 2 Este 34 Nordeste 0 -- -- 41
2020-03-18 14:00:00 21.9 2 Norte 27 Norte 0 -- -- 43
2020-03-18 13:00:00 21.1 0 Calma 29 Oeste 0 -- -- 45
2020-03-18 12:00:00 21 9 Oeste 33 Noroeste 0 -- -- 45
2020-03-18 11:00:00 19.1 6 Oeste 35 Oeste 0 -- -- 48
2020-03-18 10:00:00 19.6 0 Calma 24 Nordeste 0 -- -- 46
2020-03-18 09:00:00 18.6 5 Oeste 12 Oeste 0 -- -- 51
2020-03-18 08:00:00 17.5 4 Oeste 10 Sudoeste 0 -- -- 54
2020-03-18 07:00:00 16.7 0 Calma 12 Sudoeste 0 -- -- 55
2020-03-18 06:00:00 16.8 0 Calma 18 Noroeste 0 -- -- 54
2020-03-18 05:00:00 17 4 Sudoeste 20 Noroeste 0 -- -- 54
2020-03-18 04:00:00 17.1 0 Calma 25 Oeste 0 -- -- 52
2020-03-18 03:00:00 17.2 0 Calma 21 Norte 0 -- -- 55
2020-03-18 02:00:00 17.3 0 Calma 13 Sudeste 0 -- -- 61
2020-03-18 01:00:00 17.5 0 Calma 9 Nordeste 0 -- -- 62
2020-03-18 00:00:00 17.8 3 Este 12 Nordeste 0 -- -- 61
2020-03-17 23:00:00 18.1 0 Calma 11 Sudeste 0 -- -- 59
2020-03-17 22:00:00 18.4 0 Calma 26 Nordeste 0 -- -- 55
2020-03-17 21:00:00 18.4 4 Este 23 Nordeste 0 -- -- 50
2020-03-17 20:00:00 18.2 7 Sur 22 Sur 0 -- -- 62
2020-03-17 19:00:00 18.5 15 Sur 29 Sur 0 -- -- 64
2020-03-17 18:00:00 19.1 22 Sur 29 Sur 0 -- -- 61
2020-03-17 17:00:00 18.9 15 Sudeste 23 Sudeste 0 -- -- 57
2020-03-17 16:00:00 19.7 14 Sur 25 Sudoeste 0 -- -- 57
2020-03-17 15:00:00 19.5 17 Sur 26 Sur 0 -- -- 55
2020-03-17 14:00:00 19.7 19 Sur 26 Sur 0 -- -- 54
2020-03-17 13:00:00 20 17 Sur 23 Sur 0 -- -- 53
2020-03-17 12:00:00 19.7 14 Sudoeste 23 Oeste 0 -- -- 50
2020-03-17 11:00:00 19.7 14 Oeste 26 Oeste 0 -- -- 53
2020-03-17 10:00:00 20.5 5 Sudoeste 15 Oeste 0 -- -- 49
2020-03-17 09:00:00 17.8 3 Sur 14 Norte 0 -- -- 53
2020-03-17 08:00:00 15.7 2 Sudeste 17 Sur 0 -- -- 56
2020-03-17 07:00:00 15.9 0 Calma 13 Sur 0 -- -- 56
2020-03-17 06:00:00 16.2 2 Este 16 Sudeste 0 -- -- 54
2020-03-17 05:00:00 17.1 0 Calma 17 Sudeste 0 -- -- 53
2020-03-17 04:00:00 17.4 4 Este 24 Nordeste 0 -- -- 50
2020-03-17 03:00:00 17.6 5 Este 26 Nordeste 0 -- -- 50
2020-03-17 02:00:00 18.2 0 Calma 21 Sudoeste 0 -- -- 51
2020-03-17 01:00:00 18.5 3 Sudeste 25 Sudeste 0 -- -- 64
2020-03-17 00:00:00 18.7 14 Sur 24 Sudoeste 0 -- -- 65
2020-03-16 23:00:00 18.7 10 Sur 26 Oeste 0 -- -- 65
2020-03-16 22:00:00 18.8 5 Sudeste 21 Sudeste 0 -- -- 62
2020-03-16 21:00:00 19.2 6 Sur 24 Este 0 -- -- 62
2020-03-16 20:00:00 19.6 4 Este 16 Nordeste 0 -- -- 57
2020-03-16 19:00:00 19.7 9 Sudeste 31 Sudoeste 0 -- -- 60
2020-03-16 18:00:00 20.6 17 Sur 22 Sur 0 -- -- 57
2020-03-16 17:00:00 22.4 4 Sur 19 Sur 0 -- -- 53
2020-03-16 16:00:00 20.3 15 Sur 24 Sur 0 -- -- 59
2020-03-16 15:00:00 21.4 14 Sur 25 Sur 0 -- -- 56
2020-03-16 14:00:00 20.5 18 Sur 23 Sudoeste 0 -- -- 59
2020-03-16 13:00:00 22.2 11 Sur 22 Sudeste 0 -- -- 53
2020-03-16 12:00:00 20.2 12 Sur 18 Sur 0 -- -- 58
2020-03-16 11:00:00 20.4 10 Sur 15 Sudoeste 0 -- -- 59
2020-03-16 10:00:00 21.1 8 Sur 23 Oeste 0 -- -- 59
2020-03-16 09:00:00 19.8 6 Sur 22 Sudoeste 0 -- -- 64
2020-03-16 08:00:00 16.9 0 Calma 10 Sudoeste 0 -- -- 64
2020-03-16 07:00:00 16.7 0 Calma 10 Norte 0 -- -- 64
2020-03-16 06:00:00 16.8 0 Calma 9 Norte 0 -- -- 64
2020-03-16 05:00:00 17.7 0 Calma 9 Oeste 0 -- -- 63
2020-03-16 04:00:00 18.3 0 Calma 10 Sudoeste 0 -- -- 62
2020-03-16 03:00:00 18.6 0 Calma 12 Sudeste 0 -- -- 61
2020-03-16 02:00:00 18.3 0 Calma 12 Oeste 0 -- -- 61
2020-03-16 01:00:00 18.3 0 Calma 11 Sudeste 0 -- -- 62
2020-03-16 00:00:00 18.6 5 Sur 15 Sudoeste 0 -- -- 61
2020-03-15 23:00:00 18.6 8 Sur 18 Sudoeste 0 -- -- 62
2020-03-15 22:00:00 19.4 0 Calma 19 Nordeste 0 -- -- 48
2020-03-15 21:00:00 19.7 3 Sur 24 Norte 0 -- -- 49
2020-03-15 20:00:00 19.2 8 Oeste 26 Sudoeste 0 -- -- 58
2020-03-15 19:00:00 18.9 19 Sur 26 Sur 0 -- -- 64
2020-03-15 18:00:00 19.1 10 Sur 23 Sudoeste 0 -- -- 60
2020-03-15 17:00:00 20.1 13 Sudeste 22 Sudeste 0 -- -- 55
2020-03-15 16:00:00 21.2 8 Sur 23 Sur 0 -- -- 52
2020-03-15 15:00:00 20 19 Sudoeste 25 Sur 0 -- -- 59
2020-03-15 14:00:00 20.1 17 Sur 24 Sur 0 -- -- 59
2020-03-15 13:00:00 20.8 13 Sur 21 Sudeste 0 -- -- 56
2020-03-15 12:00:00 19.8 15 Sur 24 Sudoeste 0 -- -- 60
2020-03-15 11:00:00 21 11 Sur 22 Sudoeste 0 -- -- 58
2020-03-15 10:00:00 21.1 4 Sudoeste 13 Oeste 0 -- -- 60
2020-03-15 09:00:00 17 3 Sur 18 Sur 0 -- -- 63
2020-03-15 08:00:00 15.1 6 Sur 18 Sur 0 -- -- 67
2020-03-15 07:00:00 15.5 4 Sur 15 Sur 0 -- -- 67
2020-03-15 06:00:00 15.4 3 Sur 18 Sur 0 -- -- 69
2020-03-15 05:00:00 15.6 2 Sudeste 17 Sur 0 -- -- 69
2020-03-15 04:00:00 15.4 4 Sur 17 Sur 0 -- -- 69
2020-03-15 03:00:00 15.9 0 Calma 13 Sur 0 -- -- 67
2020-03-15 02:00:00 16.6 0 Calma 15 Norte 0 -- -- 67
2020-03-15 01:00:00 16.7 2 Sudeste 16 Sudoeste 0 -- -- 66
2020-03-15 00:00:00 18.4 12 Sur 16 Sur 0 -- -- 65
2020-03-14 23:00:00 18.4 10 Sur 15 Sudoeste 0 -- -- 65
2020-03-14 22:00:00 18.2 2 Sur 17 Este 0 -- -- 65
2020-03-14 21:00:00 18.6 6 Sur 21 Oeste 0 -- -- 65
2020-03-14 20:00:00 18.7 4 Sur 19 Sur 0 -- -- 65
2020-03-14 19:00:00 19.1 14 Sur 21 Sudoeste 0 -- -- 65
2020-03-14 18:00:00 19.7 11 Sudoeste 15 Sudoeste 0 -- -- 61
2020-03-14 17:00:00 21.2 9 Sur 21 Sudeste 0 -- -- 59
2020-03-14 16:00:00 19.7 15 Sur 24 Sudoeste 0 -- -- 62
2020-03-14 15:00:00 21.5 12 Sur 16 Sur 0 -- -- 57
2020-03-14 14:00:00 22.1 5 Sur 22 Oeste 0 -- -- 56
2020-03-14 13:00:00 20.4 15 Oeste 23 Oeste 0 -- -- 62
2020-03-14 12:00:00 20.7 10 Oeste 15 Oeste 0 -- -- 64
2020-03-14 11:00:00 21.6 7 Sur 11 Sur 0 -- -- 64
2020-03-14 10:00:00 20.9 2 Sur 7 Sudeste 0 -- -- 66
2020-03-14 09:00:00 18.7 0 Calma 12 Sur 0 -- -- 66
2020-03-14 08:00:00 16.8 0 Calma 15 Sudoeste 0 -- -- 71
2020-03-14 07:00:00 16.8 0 Calma 15 Norte 0 -- -- 71
2020-03-14 06:00:00 18.1 0 Calma 10 Sur 0 -- -- 73
2020-03-14 05:00:00 17.8 0 Calma 9 Nordeste 0 -- -- 75
2020-03-14 04:00:00 18.1 4 Oeste 14 Sudoeste 0 -- -- 76
2020-03-14 03:00:00 17.9 0 Calma 12 Sudoeste 0 -- -- 77
2020-03-14 02:00:00 18.5 9 Sudoeste 18 Oeste 0 -- -- 77
2020-03-14 01:00:00 18.8 7 Oeste 17 Sudoeste 0 -- -- 77
2020-03-14 00:00:00 18.8 9 Oeste 18 Sudoeste 0 -- -- 78
2020-03-13 23:00:00 18.8 5 Sudoeste 15 Sur 0 -- -- 78
2020-03-13 22:00:00 18.7 0 Calma 13 Oeste 0 -- -- 78
2020-03-13 21:00:00 18.8 6 Sur 15 Sudoeste 0 -- -- 78
2020-03-13 20:00:00 18.9 9 Sur 22 Sudeste 0 -- -- 77
2020-03-13 19:00:00 19.4 11 Sur 24 Sudeste 0 -- -- 75
2020-03-13 18:00:00 20.3 10 Sur 17 Sudoeste 0 -- -- 71
2020-03-13 17:00:00 20.5 6 Sur 11 Sudeste 0 -- -- 70
2020-03-13 16:00:00 22.4 4 Sur 14 Sudoeste 0 -- -- 66
2020-03-13 15:00:00 21.6 8 Sur 19 Sudeste 0 -- -- 70
2020-03-13 14:00:00 22.4 8 Sudeste 17 Sudeste 0 -- -- 66
2020-03-13 13:00:00 20.9 9 Sur 18 Oeste 0 -- -- 66
2020-03-13 12:00:00 20.6 12 Oeste 18 Oeste 0 -- -- 67
2020-03-13 11:00:00 21.7 8 Oeste 13 Oeste 0 -- -- 66
2020-03-13 10:00:00 21.9 2 Sudoeste 8 Sudoeste 0 -- -- 69
2020-03-13 09:00:00 20.5 4 Oeste 11 Nordeste 0 -- -- 74
2020-03-13 08:00:00 17.1 0 Calma 13 Sudoeste 0 -- -- 76
2020-03-13 07:00:00 17.1 0 Calma 16 Oeste 0 -- -- 77
2020-03-13 06:00:00 18.3 0 Calma 19 Este 0 -- -- 78
2020-03-13 05:00:00 17.2 0 Calma 10 Norte 0 -- -- 78
2020-03-13 04:00:00 18.6 2 Sur 12 Sudoeste 0 -- -- 75
2020-03-13 03:00:00 18.5 0 Calma 8 Norte 0 -- -- 59
2020-03-13 02:00:00 18.1 2 Nordeste 9 Sur 0 -- -- 51
2020-03-13 01:00:00 19.2 5 Oeste 15 Sudoeste 0 -- -- 78
2020-03-13 00:00:00 19.7 4 Oeste 13 Oeste 0 -- -- 72
2020-03-12 23:00:00 19.6 3 Oeste 14 Sudeste 0 -- -- 71
2020-03-12 22:00:00 19.8 5 Sur 19 Sudeste 0 -- -- 72
2020-03-12 21:00:00 19.5 9 Sudeste 23 Sudeste 0 -- -- 77
2020-03-12 20:00:00 20.5 4 Sudeste 8 Sudeste 0 -- -- 65
2020-03-12 19:00:00 21.8 3 Sudeste 8 Oeste 0 -- -- 60
2020-03-12 18:00:00 24.6 5 Oeste 7 Oeste 0 -- -- 49
2020-03-12 17:00:00 25.6 3 Sudeste 9 Oeste 0 -- -- 47
2020-03-12 16:00:00 25 6 Sudoeste 15 Oeste 0 -- -- 50
2020-03-12 15:00:00 23.2 12 Oeste 17 Noroeste 0 -- -- 51
2020-03-12 14:00:00 23 12 Oeste 17 Oeste 0 -- -- 56
2020-03-12 13:00:00 24.1 9 Oeste 30 Noroeste 0 -- -- 48
2020-03-12 12:00:00 23.4 10 Oeste 13 Oeste 0 -- -- 60
2020-03-12 11:00:00 24 5 Oeste 12 Oeste 0 -- -- 53
2020-03-12 10:00:00 23.4 3 Sudeste 8 Nordeste 0 -- -- 51
2020-03-12 09:00:00 20 5 Norte 15 Norte 0 -- -- 31
2020-03-12 08:00:00 18.6 12 Norte 17 Norte 0 -- -- 38
2020-03-12 07:00:00 18.8 8 Sudeste 14 Sudeste 0 -- -- 45
2020-03-12 06:00:00 18.7 7 Norte 13 Sudeste 0 -- -- 32
2020-03-12 05:00:00 17.1 9 Nordeste 12 Norte 0 -- -- 37
2020-03-12 04:00:00 18.2 9 Noroeste 18 Oeste 0 -- -- 75
2020-03-12 03:00:00 17.7 8 Norte 15 Norte 0 -- -- 47
2020-03-12 02:00:00 18.6 10 Norte 12 Nordeste 0 -- -- 55
2020-03-12 01:00:00 19.6 8 Sudeste 32 Este 0 -- -- 66
2020-03-12 00:00:00 20.1 15 Sudeste 29 Sudeste 0 -- -- 65
2020-03-11 23:00:00 22.2 12 Norte 15 Norte 0 -- -- 35
2020-03-11 22:00:00 21 3 Noroeste 16 Norte 0 -- -- 49
2020-03-11 21:00:00 22.1 14 Norte 19 Norte 0 -- -- 44
2020-03-11 20:00:00 19.2 2 Este 12 Sudeste 0 -- -- 71
2020-03-11 19:00:00 20.5 6 Sudeste 9 Sur 0 -- -- 65
2020-03-11 18:00:00 23 3 Sur 10 Oeste 0 -- -- 63
2020-03-11 17:00:00 21.8 6 Sudoeste 13 Oeste 0 -- -- 66
2020-03-11 16:00:00 22.6 9 Oeste 14 Oeste 0 -- -- 65
2020-03-11 15:00:00 22.2 5 Sudoeste 22 Oeste 0 -- -- 66
2020-03-11 14:00:00 19.7 18 Oeste 23 Oeste 0 -- -- 75
2020-03-11 13:00:00 21.2 12 Oeste 18 Oeste 0 -- -- 69
2020-03-11 12:00:00 21.6 4 Sudoeste 10 Sudoeste 0 -- -- 66
2020-03-11 11:00:00 22.7 5 Sur 13 Sudeste 0 -- -- 65
2020-03-11 10:00:00 21.7 5 Sudeste 11 Sudeste 0 -- -- 67
2020-03-11 09:00:00 18.7 0 Calma 9 Norte 0 -- -- 66
2020-03-11 08:00:00 16.8 7 Norte 15 Noroeste 0 -- -- 56
2020-03-11 07:00:00 17.2 3 Nordeste 14 Norte 0 -- -- 66
2020-03-11 06:00:00 16.5 8 Nordeste 18 Norte 0 -- -- 65
2020-03-11 05:00:00 16.2 10 Norte 19 Sudeste 0 -- -- 75
2020-03-11 04:00:00 17.4 3 Norte 20 Este 0 -- -- 82
2020-03-11 03:00:00 16.9 4 Nordeste 17 Sudeste 0 -- -- 62
2020-03-11 02:00:00 18.8 10 Sudeste 17 Sudeste 0 -- -- 77
2020-03-11 01:00:00 17.5 6 Norte 10 Oeste 0 -- -- 56
2020-03-11 00:00:00 18.6 8 Oeste 17 Oeste 0 -- -- 84
2020-03-10 23:00:00 18.7 9 Norte 20 Norte 0 -- -- 83
2020-03-10 22:00:00 18.7 6 Sudeste 9 Sur 0 -- -- 83
2020-03-10 21:00:00 18.8 4 Sudoeste 10 Sur 0 -- -- 81
2020-03-10 20:00:00 19.2 4 Sur 11 Sur 0 -- -- 80
2020-03-10 19:00:00 19.6 9 Sudeste 14 Sudeste 0 -- -- 76
2020-03-10 18:00:00 20.4 13 Sudeste 21 Sudeste 0 -- -- 72
2020-03-10 17:00:00 22.7 12 Sudeste 15 Sudeste 0 -- -- 63
2020-03-10 16:00:00 24.4 6 Oeste 22 Oeste 0 -- -- 60
2020-03-10 15:00:00 21.4 16 Oeste 24 Oeste 0 -- -- 65
2020-03-10 14:00:00 20.6 20 Oeste 29 Oeste 0 -- -- 67
2020-03-10 13:00:00 21 19 Oeste 24 Oeste 0 -- -- 65
2020-03-10 12:00:00 22.2 12 Oeste 17 Oeste 0 -- -- 60
2020-03-10 11:00:00 21.9 8 Oeste 14 Oeste 0 -- -- 59
2020-03-10 10:00:00 23.5 0 Calma 9 Este 0 -- -- 57
2020-03-10 09:00:00 20.6 6 Este 16 Sudeste 0 -- -- 56
2020-03-10 08:00:00 18.3 7 Nordeste 16 Norte 0 -- -- 39
2020-03-10 07:00:00 18.5 9 Nordeste 21 Norte 0 -- -- 34
2020-03-10 06:00:00 19.1 9 Norte 12 Nordeste 0 -- -- 32
2020-03-10 05:00:00 20.1 7 Nordeste 15 Nordeste 0 -- -- 30
2020-03-10 04:00:00 19.3 4 Norte 9 Norte 0 -- -- 35
2020-03-10 03:00:00 20.9 8 Norte 14 Norte 0 -- -- 28
2020-03-10 02:00:00 19.5 8 Nordeste 12 Norte 0 -- -- 44
2020-03-10 01:00:00 19.2 2 Norte 8 Norte 0 -- -- 62
2020-03-10 00:00:00 19.2 2 Sudeste 10 Sudeste 0 -- -- 72
2020-03-09 23:00:00 19.8 3 Nordeste 20 Sudeste 0 -- -- 70
2020-03-09 22:00:00 20 16 Sudeste 22 Sudeste 0 -- -- 71
2020-03-09 21:00:00 23 3 Norte 13 Oeste 0 -- -- 39
2020-03-09 20:00:00 23.7 9 Oeste 15 Oeste 0 -- -- 40
2020-03-09 19:00:00 22.1 12 Noroeste 24 Noroeste 0 -- -- 56
2020-03-09 18:00:00 22.8 17 Oeste 23 Oeste 0 -- -- 56
2020-03-09 17:00:00 24.1 15 Oeste 23 Noroeste 0 -- -- 46
2020-03-09 16:00:00 23.3 15 Oeste 26 Oeste 0 -- -- 56
2020-03-09 15:00:00 23.8 21 Oeste 36 Oeste 0 -- -- 47
2020-03-09 14:00:00 23.8 17 Sudoeste 41 Sudeste 0 -- -- 46
2020-03-09 13:00:00 26.1 12 Sur 40 Sudeste 0 -- -- 29
2020-03-09 12:00:00 29.1 16 Este 42 Sudeste 0 -- -- 23
2020-03-09 11:00:00 24.8 13 Oeste 21 Oeste 0 -- -- 40
2020-03-09 10:00:00 22.4 9 Oeste 14 Oeste 0 -- -- 56
2020-03-09 09:00:00 22.1 3 Oeste 16 Oeste 0 -- -- 57
2020-03-09 08:00:00 21.2 7 Oeste 15 Nordeste 0 -- -- 51
2020-03-09 07:00:00 20 2 Oeste 12 Oeste 0 -- -- 56
2020-03-09 06:00:00 19.7 3 Oeste 11 Sudeste 0 -- -- 60
2020-03-09 05:00:00 19.5 3 Norte 15 Norte 0 -- -- 60
2020-03-09 04:00:00 19.2 3 Nordeste 13 Norte 0 -- -- 67
2020-03-09 03:00:00 18.5 10 Norte 15 Norte 0 -- -- 74
2020-03-09 02:00:00 18.4 5 Norte 8 Nordeste 0 -- -- 77
2020-03-09 01:00:00 18.7 4 Este 7 Sudeste 0 -- -- 77
2020-03-09 00:00:00 19.3 2 Sudoeste 6 Nordeste 0 -- -- 73
2020-03-08 23:00:00 19.5 5 Este 18 Sudeste 0 -- -- 73
2020-03-08 22:00:00 20.1 19 Sudeste 31 Este 0 -- -- 72
2020-03-08 21:00:00 23.7 3 Noroeste 8 Oeste 0 -- -- 43
2020-03-08 20:00:00 24.1 3 Noroeste 16 Oeste 0 -- -- 45
2020-03-08 19:00:00 23.3 12 Oeste 24 Oeste 0 -- -- 50
2020-03-08 18:00:00 25 18 Oeste 24 Oeste 0 -- -- 43
2020-03-08 17:00:00 24.1 17 Oeste 23 Oeste 0 -- -- 46
2020-03-08 16:00:00 26.2 8 Oeste 12 Oeste 0 -- -- 41
2020-03-08 15:00:00 25.6 8 Oeste 13 Oeste 0 -- -- 43
2020-03-08 14:00:00 27 3 Sudeste 12 Oeste 0 -- -- 46
2020-03-08 13:00:00 24 12 Oeste 23 Oeste 0 -- -- 50
2020-03-08 12:00:00 21.8 20 Oeste 33 Oeste 0 -- -- 56
2020-03-08 11:00:00 21 13 Oeste 18 Oeste 0 -- -- 62
2020-03-08 10:00:00 20.6 7 Oeste 15 Norte 0 -- -- 64
2020-03-08 09:00:00 17.3 4 Nordeste 19 Nordeste 0 -- -- 66
2020-03-08 08:00:00 15.8 11 Nordeste 20 Norte 0 -- -- 71
2020-03-08 07:00:00 15.9 14 Norte 19 Sur 0 -- -- 72
2020-03-08 06:00:00 15.8 14 Norte 17 Norte 0 -- -- 72
2020-03-08 05:00:00 16.4 10 Nordeste 16 Nordeste 0 -- -- 75
2020-03-08 04:00:00 16.3 9 Nordeste 13 Nordeste 0 -- -- 72
2020-03-08 03:00:00 17.3 6 Norte 10 Sudeste 0 -- -- 77
2020-03-08 02:00:00 18.2 10 Sudeste 31 Sudeste 0 -- -- 76
2020-03-08 01:00:00 18.6 29 Sudeste 42 Sudeste 0 -- -- 71
2020-03-08 00:00:00 18.3 8 Norte 17 Norte 0 -- -- 67
2020-03-07 23:00:00 18.6 4 Sudeste 11 Sudeste 0 -- -- 71
2020-03-07 22:00:00 18.7 5 Sudeste 8 Sudeste 0 -- -- 70
2020-03-07 21:00:00 19 6 Sudeste 14 Este 0 -- -- 69
2020-03-07 20:00:00 19.1 10 Este 17 Este 0 -- -- 66
2020-03-07 19:00:00 19.6 3 Sur 9 Sudoeste 0 -- -- 62
2020-03-07 18:00:00 21 6 Sur 12 Sur 0 -- -- 60
2020-03-07 17:00:00 21 9 Sur 19 Sudeste 0 -- -- 58
2020-03-07 16:00:00 21.7 17 Sudeste 21 Sudeste 0 -- -- 56
2020-03-07 15:00:00 23.2 7 Sudeste 11 Sudeste 0 -- -- 50
2020-03-07 14:00:00 22.5 5 Sur 12 Sudoeste 0 -- -- 54
2020-03-07 13:00:00 21.7 7 Sudoeste 13 Sur 0 -- -- 56
2020-03-07 12:00:00 21.1 8 Sur 14 Oeste 0 -- -- 57
2020-03-07 11:00:00 20.1 13 Oeste 17 Oeste 0 -- -- 60
2020-03-07 10:00:00 20.7 5 Sudoeste 15 Norte 0 -- -- 56
2020-03-07 09:00:00 16.8 10 Norte 21 Nordeste 0 -- -- 58
2020-03-07 08:00:00 15 14 Norte 20 Norte 0 -- -- 60
2020-03-07 07:00:00 14.8 15 Norte 20 Norte 0 -- -- 63
2020-03-07 06:00:00 15.1 14 Norte 17 Norte 0 -- -- 63
2020-03-07 05:00:00 15.7 12 Norte 17 Norte 0 -- -- 64
2020-03-07 04:00:00 15.6 12 Norte 16 Nordeste 0 -- -- 63
2020-03-07 03:00:00 16 12 Norte 18 Norte 0 -- -- 61
2020-03-07 02:00:00 16.8 12 Nordeste 18 Nordeste 0 -- -- 64
2020-03-07 01:00:00 16.8 10 Norte 15 Norte 0 -- -- 64
2020-03-07 00:00:00 17.6 5 Norte 16 Sudeste 0 -- -- 66
2020-03-06 23:00:00 18.9 14 Sur 26 Sur 0 -- -- 66
2020-03-06 22:00:00 18.9 11 Este 18 Este 0 -- -- 67
2020-03-06 21:00:00 18.9 8 Este 13 Sudeste 0 -- -- 67
2020-03-06 20:00:00 19 8 Sudoeste 13 Sudoeste 0 -- -- 67
2020-03-06 19:00:00 19.6 10 Sur 15 Sur 0 -- -- 64
2020-03-06 18:00:00 20.3 9 Sudeste 17 Sur 0 -- -- 61
2020-03-06 17:00:00 21.6 10 Sur 22 Sur 0 -- -- 60
2020-03-06 16:00:00 21.2 15 Sur 20 Sur 0 -- -- 59
2020-03-06 15:00:00 21.3 13 Sur 23 Sudoeste 0 -- -- 60
2020-03-06 14:00:00 20.6 18 Sudoeste 24 Sudoeste 0 -- -- 63
2020-03-06 13:00:00 21.6 9 Sudoeste 14 Sudoeste 0 -- -- 62
2020-03-06 12:00:00 21.6 9 Sur 14 Sur 0 -- -- 64
2020-03-06 11:00:00 20.9 5 Sudoeste 11 Oeste 0 -- -- 67
2020-03-06 10:00:00 21.3 5 Sudoeste 12 Norte 0 -- -- 66
2020-03-06 09:00:00 18 8 Norte 17 Norte 0 -- -- 70
2020-03-06 08:00:00 16.4 12 Norte 18 Norte 0 -- -- 74
2020-03-06 07:00:00 16.6 12 Norte 16 Norte 0 -- -- 75
2020-03-06 06:00:00 16.6 12 Norte 17 Norte 0 -- -- 76
2020-03-06 05:00:00 16.7 11 Norte 16 Norte 0 -- -- 76
2020-03-06 04:00:00 16.9 11 Norte 16 Norte 0 -- -- 76
2020-03-06 03:00:00 17.3 9 Norte 21 Noroeste 0 -- -- 75
2020-03-06 02:00:00 18.6 0 Calma 15 Sur 0 -- -- 75
2020-03-06 01:00:00 18.9 10 Sudoeste 19 Oeste 0 -- -- 76
2020-03-06 00:00:00 18.9 4 Oeste 16 Sur 0 -- -- 75
2020-03-05 23:00:00 19 13 Sudeste 21 Sudeste 0 -- -- 77
2020-03-05 22:00:00 19.1 5 Sur 14 Sudeste 0 -- -- 76
2020-03-05 21:00:00 19.1 7 Sudeste 19 Sudeste 0 -- -- 75
2020-03-05 20:00:00 19.4 14 Sudeste 21 Sudeste 0 -- -- 73
2020-03-05 19:00:00 20.3 11 Sudeste 15 Este 0 -- -- 67
2020-03-05 18:00:00 22.8 2 Sudoeste 10 Sudoeste 0 -- -- 63
2020-03-05 17:00:00 22 5 Sudoeste 15 Sur 0 -- -- 66
2020-03-05 16:00:00 21.6 10 Sur 16 Sur 0 -- -- 67
2020-03-05 15:00:00 21.3 12 Sur 22 Sudoeste 0 -- -- 68
2020-03-05 14:00:00 21.1 14 Sudoeste 19 Sudoeste 0 -- -- 68
2020-03-05 13:00:00 21.7 9 Sudoeste 14 Oeste 0 -- -- 68
2020-03-05 12:00:00 21.8 10 Sur 21 Sudeste 0 -- -- 70
2020-03-05 11:00:00 20.3 14 Sudeste 18 Sudeste 0 -- -- 72
2020-03-05 10:00:00 20.8 12 Sudeste 18 Sudeste 0 -- -- 73
2020-03-05 09:00:00 19.5 6 Este 15 Este 0 -- -- 78
2020-03-05 08:00:00 17.7 5 Norte 9 Norte 0 -- -- 81
2020-03-05 07:00:00 18.5 7 Sudoeste 10 Sudoeste 0 -- -- 84
2020-03-05 06:00:00 18.5 5 Sur 17 Sur 0 -- -- 84
2020-03-05 05:00:00 18.6 11 Este 25 Sudeste 0 -- -- 84
2020-03-05 04:00:00 18.2 3 Norte 19 Sudeste 0 -- -- 84
2020-03-05 03:00:00 18.7 10 Sudeste 16 Sudeste 0 -- -- 84
2020-03-05 02:00:00 18.9 7 Sudeste 13 Sudeste 0 -- -- 84
2020-03-05 01:00:00 19.1 4 Este 14 Este 0 -- -- 84
2020-03-05 00:00:00 19.1 5 Este 13 Sudeste 0 -- -- 85
2020-03-04 23:00:00 19 9 Sudeste 11 Sudeste 0 -- -- 84
2020-03-04 22:00:00 19.1 9 Sudeste 10 Sudeste 0 -- -- 81
2020-03-04 21:00:00 19.1 0 Calma 6 Sudoeste 0 -- -- 78
2020-03-04 20:00:00 19.4 3 Sur 5 Oeste 0 -- -- 76
2020-03-04 19:00:00 20.2 4 Sudoeste 10 Oeste 0 -- -- 72
2020-03-04 18:00:00 21.9 6 Sudoeste 10 Sudoeste 0 -- -- 68
2020-03-04 17:00:00 22.6 6 Sur 14 Sudeste 0 -- -- 68
2020-03-04 16:00:00 20.9 12 Sudeste 17 Sudeste 0 -- -- 71
2020-03-04 15:00:00 22.4 16 Sudeste 18 Sudeste 0 -- -- 63
2020-03-04 14:00:00 23 14 Sudeste 16 Sudeste 0 -- -- 61
2020-03-04 13:00:00 25.1 6 Sudeste 10 Este 0 -- -- 56
2020-03-04 12:00:00 23.7 4 Sur 16 Oeste 0 -- -- 66
2020-03-04 11:00:00 21 11 Oeste 15 Oeste 0 -- -- 71
2020-03-04 10:00:00 22.3 4 Oeste 15 Oeste 0 -- -- 61
2020-03-04 09:00:00 18.1 12 Norte 17 Norte 0 -- -- 70
2020-03-04 08:00:00 15.9 12 Norte 14 Norte 0 -- -- 76
2020-03-04 07:00:00 16.3 10 Norte 15 Norte 0 -- -- 76
2020-03-04 06:00:00 16.9 13 Norte 18 Norte 0 -- -- 76
2020-03-04 05:00:00 16.8 13 Norte 18 Norte 0 -- -- 78
2020-03-04 04:00:00 16.2 12 Norte 15 Norte 0 -- -- 81
2020-03-04 03:00:00 16.7 10 Norte 12 Norte 0 -- -- 81
2020-03-04 02:00:00 17.7 5 Norte 12 Nordeste 0 -- -- 81
2020-03-04 01:00:00 17.6 6 Norte 13 Este 0 -- -- 81
2020-03-04 00:00:00 18.5 8 Sudeste 21 Sudeste 0 -- -- 81
2020-03-03 23:00:00 18.7 10 Sudeste 15 Este 0 -- -- 81
2020-03-03 22:00:00 18.8 5 Sudeste 10 Sudeste 0 -- -- 80
2020-03-03 21:00:00 18.9 6 Sudeste 13 Sudeste 0 -- -- 77
2020-03-03 20:00:00 19.1 7 Sudeste 10 Sudeste 0 -- -- 76
2020-03-03 19:00:00 19.9 5 Sur 9 Sur 0 -- -- 71
2020-03-03 18:00:00 21.5 4 Sur 13 Sudoeste 0 -- -- 69
2020-03-03 17:00:00 21.2 8 Sudoeste 13 Sudoeste 0 -- -- 70
2020-03-03 16:00:00 21 9 Sudoeste 12 Sudoeste 0 -- -- 68
2020-03-03 15:00:00 22.8 8 Sur 15 Sur 0 -- -- 64
2020-03-03 14:00:00 22.1 8 Sudoeste 14 Sudoeste 0 -- -- 66
2020-03-03 13:00:00 22.4 10 Oeste 15 Oeste 0 -- -- 64
2020-03-03 12:00:00 22.4 6 Oeste 10 Oeste 0 -- -- 65
2020-03-03 11:00:00 22.1 3 Sudoeste 13 Oeste 0 -- -- 67
2020-03-03 10:00:00 22.6 0 Calma 11 Norte 0 -- -- 71
2020-03-03 09:00:00 17 10 Norte 17 Norte 0 -- -- 76
2020-03-03 08:00:00 16 13 Norte 17 Norte 0 -- -- 78
2020-03-03 07:00:00 15.7 13 Norte 17 Norte 0 -- -- 78
2020-03-03 06:00:00 16.2 10 Norte 18 Norte 0 -- -- 77
2020-03-03 05:00:00 16 14 Norte 18 Norte 0 -- -- 78
2020-03-03 04:00:00 16.2 12 Norte 14 Norte 0 -- -- 78
2020-03-03 03:00:00 16.7 10 Norte 14 Norte 0 -- -- 77
2020-03-03 02:00:00 17.4 9 Norte 14 Norte 0 -- -- 76
2020-03-03 01:00:00 17.4 10 Norte 13 Norte 0 -- -- 76
2020-03-03 00:00:00 18.3 4 Nordeste 9 Este 0 -- -- 76
2020-03-02 23:00:00 18.2 2 Norte 6 Oeste 0 -- -- 76
2020-03-02 22:00:00 18.7 3 Oeste 5 Sudoeste 0 -- -- 76
2020-03-02 21:00:00 19 4 Sudoeste 6 Sudeste 0 -- -- 75
2020-03-02 20:00:00 19.3 5 Sudeste 13 Sudoeste 0 -- -- 72
2020-03-02 19:00:00 19.8 10 Sudoeste 21 Sudoeste 0 -- -- 72
2020-03-02 18:00:00 20.3 15 Sudoeste 22 Sudoeste 0 -- -- 71
2020-03-02 17:00:00 20.7 11 Sudoeste 18 Sur 0 -- -- 68
2020-03-02 16:00:00 20.4 15 Sur 23 Sur 0 -- -- 70
2020-03-02 15:00:00 21.4 16 Sur 21 Sur 0 -- -- 67
2020-03-02 14:00:00 21.6 14 Sur 19 Sudoeste 0 -- -- 66
2020-03-02 13:00:00 20.7 13 Sudoeste 19 Oeste 0 -- -- 65
2020-03-02 12:00:00 22.3 8 Sur 21 Sudeste 0 -- -- 64
2020-03-02 11:00:00 20.5 18 Sudeste 20 Sudeste 0 -- -- 67
2020-03-02 10:00:00 20.7 12 Sudeste 18 Este 0 -- -- 66
2020-03-02 09:00:00 17.3 10 Norte 16 Norte 0 -- -- 66
2020-03-02 08:00:00 16.5 13 Norte 18 Norte 0 -- -- 70
2020-03-02 07:00:00 16.6 12 Norte 17 Norte 0 -- -- 71
2020-03-02 06:00:00 16.4 14 Norte 18 Norte 0 -- -- 72
2020-03-02 05:00:00 17.7 11 Nordeste 32 Nordeste 0 -- -- 73
2020-03-02 04:00:00 16.8 11 Norte 13 Norte 0 -- -- 72
2020-03-02 03:00:00 18.1 7 Norte 14 Norte 0 -- -- 75
2020-03-02 02:00:00 17.5 5 Norte 9 Norte 0 -- -- 75
2020-03-02 01:00:00 18 5 Este 14 Sudeste 0 -- -- 76
2020-03-02 00:00:00 18.2 10 Sudeste 14 Sudeste 0 -- -- 75
2020-03-01 23:00:00 18.5 8 Sur 16 Sur 0 -- -- 75
2020-03-01 22:00:00 18.7 12 Sudoeste 16 Sudoeste 0 -- -- 75
2020-03-01 21:00:00 18.7 6 Oeste 13 Oeste 0 -- -- 74
2020-03-01 20:00:00 18.5 8 Sudeste 24 Sudeste 0 -- -- 73
2020-03-01 19:00:00 18.7 23 Sudeste 33 Sudeste 0 -- -- 73
2020-03-01 18:00:00 19.4 30 Sudeste 40 Sudeste 0 -- -- 73
2020-03-01 17:00:00 20.7 23 Sudeste 31 Sudeste 0 -- -- 67
2020-03-01 16:00:00 21.6 10 Oeste 19 Oeste 0 -- -- 67
2020-03-01 15:00:00 20 16 Oeste 26 Oeste 0 -- -- 70
2020-03-01 14:00:00 19.6 18 Oeste 27 Oeste 0 -- -- 73
2020-03-01 13:00:00 20 13 Oeste 20 Oeste 0 -- -- 71
2020-03-01 12:00:00 20.8 6 Sudoeste 15 Sudeste 0 -- -- 70
2020-03-01 11:00:00 20.7 13 Sudeste 19 Sudeste 0 -- -- 71
2020-03-01 10:00:00 20.4 12 Sudeste 17 Este 0 -- -- 72
2020-03-01 09:00:00 16.5 10 Norte 14 Norte 0 -- -- 74
2020-03-01 08:00:00 15.7 8 Norte 16 Norte 0 -- -- 77
2020-03-01 07:00:00 15.4 12 Norte 16 Norte 0 -- -- 77
2020-03-01 06:00:00 15.6 11 Norte 16 Norte 0 -- -- 77
2020-03-01 05:00:00 15.7 10 Nordeste 15 Nordeste 0 -- -- 77
2020-03-01 04:00:00 15.7 12 Norte 14 Norte 0 -- -- 76
2020-03-01 03:00:00 16.2 11 Norte 13 Norte 0 -- -- 76
2020-03-01 02:00:00 16.6 10 Norte 14 Nordeste 0 -- -- 75
2020-03-01 01:00:00 17.3 5 Nordeste 17 Este 0 -- -- 75
2020-03-01 00:00:00 17.2 7 Norte 10 Norte 0 -- -- 74
2020-02-29 23:00:00 18 7 Norte 11 Norte 0 -- -- 73
2020-02-29 22:00:00 18.2 3 Nordeste 6 Norte 0 -- -- 75
2020-02-29 21:00:00 18.6 4 Sudeste 8 Sudeste 0 -- -- 73
2020-02-29 20:00:00 18.5 3 Este -- -- -- -- -- 72
2020-02-29 19:00:00 18.9 4 Sudeste 13 Sur 0 -- -- 71
2020-02-29 18:00:00 20.2 9 Sur 16 Sudoeste 0 -- -- 68
2020-02-29 17:00:00 19.8 12 Oeste 22 Oeste 0 -- -- 68
2020-02-29 16:00:00 20.3 17 Oeste 23 Oeste 0 -- -- 68
2020-02-29 15:00:00 20.7 14 Oeste 19 Oeste 0 -- -- 66
2020-02-29 14:00:00 20.7 6 Sur 15 Sudeste 0 -- -- 67
2020-02-29 13:00:00 20 10 Sudeste 14 Sudeste 0 -- -- 67
2020-02-29 12:00:00 20.6 8 Oeste 17 Oeste 0 -- -- 67
2020-02-29 11:00:00 20.3 9 Oeste 13 Oeste 0 -- -- 69
2020-02-29 10:00:00 20.5 5 Oeste 13 Norte 0 -- -- 69
2020-02-29 09:00:00 16.8 10 Norte 16 Norte 0 -- -- 70
2020-02-29 08:00:00 15.5 13 Norte 16 Norte 0 -- -- 74
2020-02-29 07:00:00 15.7 12 Norte 17 Norte 0 -- -- 74
2020-02-29 06:00:00 15.8 11 Norte 17 Norte 0 -- -- 74
2020-02-29 05:00:00 15.8 12 Norte 18 Norte 0 -- -- 72
2020-02-29 04:00:00 15.7 12 Norte 15 Norte 0 -- -- 73
2020-02-29 03:00:00 16.3 9 Norte 12 Nordeste 0 -- -- 75
2020-02-29 02:00:00 17.3 5 Noroeste 12 Norte 0 -- -- 73
2020-02-29 01:00:00 17 7 Norte 12 Norte 0 -- -- 72
2020-02-29 00:00:00 17.7 7 Este 17 Sudeste 0 -- -- 71